createdAt,value
2022-10-18T00:00:06.003Z,9.00
2022-10-18T00:02:32.696Z,9.13
2022-10-18T00:04:59.273Z,8.98
2022-10-18T00:07:26.063Z,9.27
2022-10-18T00:09:52.608Z,8.75
2022-10-18T00:12:19.259Z,8.73
2022-10-18T00:14:49.737Z,8.85
2022-10-18T00:17:16.621Z,8.60
2022-10-18T00:19:43.504Z,8.80
2022-10-18T00:22:10.132Z,9.15
2022-10-18T00:24:36.711Z,9.52
2022-10-18T00:27:03.373Z,9.68
2022-10-18T00:29:30.186Z,9.27
2022-10-18T00:31:59.880Z,9.38
2022-10-18T00:34:32.745Z,9.75
2022-10-18T00:36:59.661Z,9.25
2022-10-18T00:39:26.368Z,9.10
2022-10-18T00:41:53.171Z,9.48
2022-10-18T00:44:25.988Z,10.20
2022-10-18T00:46:56.975Z,9.43
2022-10-18T00:49:28.688Z,10.52
2022-10-18T00:52:00.965Z,10.23
2022-10-18T00:54:29.951Z,9.73
2022-10-18T00:56:56.665Z,10.50
2022-10-18T00:59:24.264Z,10.60
2022-10-18T01:01:51.066Z,11.10
2022-10-18T01:04:19.197Z,10.00
2022-10-18T01:06:59.038Z,9.77
2022-10-18T01:09:36.532Z,9.80
2022-10-18T01:12:18.685Z,10.25
2022-10-18T01:15:05.607Z,10.15
2022-10-18T01:17:54.785Z,9.65
2022-10-18T01:20:36.509Z,9.63
2022-10-18T01:23:44.720Z,10.10
2022-10-18T01:26:27.816Z,9.68
2022-10-18T01:29:22.222Z,10.25
2022-10-18T01:32:03.465Z,10.10
2022-10-18T01:34:35.194Z,10.32
2022-10-18T01:37:05.028Z,10.13
2022-10-18T01:39:35.919Z,10.15
2022-10-18T01:42:07.590Z,10.70
2022-10-18T01:44:35.587Z,10.77
2022-10-18T01:47:03.995Z,9.93
2022-10-18T01:49:30.554Z,10.52
2022-10-18T01:52:03.454Z,11.05
2022-10-18T01:54:50.875Z,11.15
2022-10-18T01:57:28.521Z,9.75
2022-10-18T01:59:59.227Z,10.05
2022-10-18T02:02:40.768Z,10.55
2022-10-18T02:05:26.299Z,11.57
2022-10-18T02:08:23.250Z,10.32
2022-10-18T02:10:56.974Z,10.27
2022-10-18T02:13:27.353Z,12.13
2022-10-18T02:16:00.608Z,11.02
2022-10-18T02:18:37.071Z,12.45
2022-10-18T02:21:08.435Z,12.13
2022-10-18T02:23:36.004Z,12.77
2022-10-18T02:26:02.615Z,11.95
2022-10-18T02:28:29.858Z,12.05
2022-10-18T02:31:04.795Z,11.77
2022-10-18T02:33:56.279Z,10.65
2022-10-18T02:36:29.059Z,10.93
2022-10-18T02:39:01.893Z,11.63
2022-10-18T02:41:30.561Z,10.20
2022-10-18T02:44:00.122Z,10.27
2022-10-18T02:48:53.301Z,10.60
2022-10-18T02:51:20.186Z,10.90
2022-10-18T02:53:46.797Z,9.85
2022-10-18T02:56:13.451Z,9.75
2022-10-18T02:58:39.953Z,11.07
2022-10-18T03:01:06.591Z,11.45
2022-10-18T03:03:33.467Z,13.48
2022-10-18T03:06:00.129Z,14.02
2022-10-18T03:08:26.930Z,14.40
2022-10-18T03:10:53.470Z,15.25
2022-10-18T03:13:20.451Z,16.02
2022-10-18T03:15:48.209Z,16.55
2022-10-18T03:18:15.638Z,16.63
2022-10-18T03:20:42.841Z,17.58
2022-10-18T03:23:09.753Z,17.83
2022-10-18T03:25:36.706Z,19.42
2022-10-18T03:28:06.503Z,18.20
2022-10-18T03:30:33.200Z,17.98
2022-10-18T03:33:00.188Z,18.15
2022-10-18T03:35:26.837Z,16.92
2022-10-18T03:37:53.615Z,18.13
2022-10-18T03:40:20.873Z,17.13
2022-10-18T03:42:49.017Z,17.60
2022-10-18T03:45:19.082Z,17.40
2022-10-18T03:47:45.831Z,17.38
2022-10-18T03:50:12.613Z,17.92
2022-10-18T03:52:39.290Z,17.83
2022-10-18T03:55:06.439Z,16.95
2022-10-18T03:57:32.992Z,16.70
2022-10-18T03:59:59.675Z,16.15
2022-10-18T04:02:26.402Z,17.42
2022-10-18T04:04:53.104Z,16.10
2022-10-18T04:07:19.730Z,18.35
2022-10-18T04:09:46.561Z,18.60
2022-10-18T04:12:13.372Z,19.58
2022-10-18T04:14:40.477Z,20.77
2022-10-18T04:17:07.299Z,19.25
2022-10-18T04:19:34.234Z,18.42
2022-10-18T04:22:01.359Z,19.50
2022-10-18T04:24:28.240Z,18.85
2022-10-18T04:26:55.170Z,20.15
2022-10-18T04:29:22.170Z,19.98
2022-10-18T04:31:48.998Z,20.52
2022-10-18T04:34:21.996Z,20.90
2022-10-18T04:36:49.187Z,20.13
2022-10-18T04:39:17.706Z,20.42
2022-10-18T04:41:44.623Z,19.85
2022-10-18T04:44:12.909Z,20.90
2022-10-18T04:46:40.903Z,20.50
2022-10-18T04:49:09.162Z,18.52
2022-10-18T04:51:39.118Z,19.77
2022-10-18T04:54:06.441Z,18.88
2022-10-18T04:56:36.003Z,20.08
2022-10-18T04:59:06.229Z,20.00
2022-10-18T05:01:38.396Z,21.02
2022-10-18T05:04:05.469Z,19.15
2022-10-18T05:06:36.191Z,19.60
2022-10-18T05:09:03.316Z,19.38
2022-10-18T05:11:30.013Z,19.42
2022-10-18T05:13:56.679Z,19.05
2022-10-18T05:16:23.557Z,20.10
2022-10-18T05:18:50.341Z,19.55
2022-10-18T05:21:17.239Z,21.33
2022-10-18T05:23:43.770Z,21.75
2022-10-18T05:26:13.634Z,20.35
2022-10-18T05:28:41.293Z,22.13
2022-10-18T05:31:12.002Z,18.80
2022-10-18T05:33:38.773Z,20.98
2022-10-18T05:36:05.777Z,22.42
2022-10-18T05:38:32.980Z,21.20
2022-10-18T05:40:59.752Z,22.52
2022-10-18T05:43:30.089Z,22.77
2022-10-18T05:45:56.954Z,22.77
2022-10-18T05:48:23.680Z,21.85
2022-10-18T05:50:50.618Z,21.00
2022-10-18T05:53:37.239Z,21.00
2022-10-18T05:56:04.693Z,20.30
2022-10-18T05:58:31.414Z,19.23
2022-10-18T06:01:02.548Z,18.67
2022-10-18T06:03:31.015Z,19.88
2022-10-18T06:06:10.066Z,19.23
2022-10-18T06:08:38.126Z,19.40
2022-10-18T06:11:13.360Z,20.48
2022-10-18T06:13:44.488Z,20.83
2022-10-18T06:16:12.470Z,22.05
2022-10-18T06:18:42.637Z,21.40
2022-10-18T06:21:10.168Z,21.45
2022-10-18T06:23:36.801Z,22.02
2022-10-18T06:26:10.256Z,21.58
2022-10-18T06:37:12.174Z,23.00
2022-10-18T06:46:36.530Z,21.10
2022-10-18T07:57:50.463Z,20.67
2022-10-18T08:07:11.682Z,18.85
2022-10-18T08:09:38.884Z,17.55
2022-10-18T08:12:05.413Z,15.45
2022-10-18T08:17:37.536Z,13.55
2022-10-18T08:24:00.606Z,13.48
2022-10-18T08:26:40.770Z,10.45
2022-10-18T08:29:26.889Z,10.32
2022-10-18T08:31:55.821Z,10.35
2022-10-18T08:34:35.739Z,9.52
2022-10-18T08:46:56.505Z,9.70
2022-10-18T08:52:43.463Z,8.63
2022-10-18T08:55:12.707Z,10.35
2022-10-18T08:57:39.162Z,9.88
2022-10-18T09:00:14.818Z,9.20
2022-10-18T09:03:02.485Z,8.77
2022-10-18T09:05:39.849Z,8.02
2022-10-18T09:08:29.703Z,7.40
2022-10-18T09:10:59.398Z,6.80
2022-10-18T09:13:35.164Z,8.10
2022-10-18T09:16:02.815Z,7.15
2022-10-18T09:18:29.361Z,6.05
2022-10-18T09:21:02.404Z,7.25
2022-10-18T09:23:44.365Z,6.88
2022-10-18T09:34:31.016Z,6.45
2022-10-18T09:45:47.742Z,7.18
2022-10-18T09:48:19.163Z,7.32
2022-10-18T09:50:53.328Z,6.38
2022-10-18T09:53:24.385Z,6.90
2022-10-18T09:55:58.569Z,6.10
2022-10-18T09:58:30.567Z,6.28
2022-10-18T10:01:00.349Z,5.97
2022-10-18T10:03:27.009Z,5.95
2022-10-18T10:06:17.708Z,5.53
2022-10-18T10:08:47.805Z,6.38
2022-10-18T10:11:28.696Z,5.53
2022-10-18T10:14:07.022Z,5.53
2022-10-18T10:16:36.754Z,5.90
2022-10-18T10:19:03.233Z,6.80
2022-10-18T10:21:35.588Z,7.50
2022-10-18T10:24:02.878Z,5.40
2022-10-18T10:26:32.479Z,12.05
2022-10-18T10:29:13.158Z,7.40
2022-10-18T10:31:43.992Z,5.82
2022-10-18T10:34:13.464Z,5.20
2022-10-18T10:36:56.518Z,4.65
2022-10-18T10:39:24.241Z,4.40
2022-10-18T10:41:54.082Z,6.90
2022-10-18T10:44:21.924Z,9.93
2022-10-18T10:46:58.541Z,5.47
2022-10-18T10:49:46.287Z,12.00
2022-10-18T10:52:28.813Z,6.80
2022-10-18T10:55:11.015Z,4.23
2022-10-18T10:57:41.286Z,3.45
2022-10-18T11:03:30.974Z,4.07
2022-10-18T11:06:00.686Z,4.40
2022-10-18T11:08:40.405Z,4.65
2022-10-18T11:14:45.845Z,4.22
2022-10-18T11:17:32.943Z,4.18
2022-10-18T11:20:11.405Z,3.75
2022-10-18T11:22:46.183Z,6.45
2022-10-18T11:25:15.550Z,3.63
2022-10-18T11:28:06.983Z,5.93
2022-10-18T11:30:46.608Z,3.90
2022-10-18T11:33:56.373Z,4.97
2022-10-18T11:36:45.390Z,4.80
2022-10-18T11:39:43.187Z,4.05
2022-10-18T11:42:16.792Z,3.70
2022-10-18T11:44:58.711Z,3.97
2022-10-18T11:47:35.832Z,3.22
2022-10-18T11:50:02.521Z,3.58
2022-10-18T11:52:55.248Z,3.65
2022-10-18T11:55:36.084Z,3.78
2022-10-18T11:58:10.287Z,4.05
2022-10-18T12:00:40.523Z,4.13
2022-10-18T12:03:25.802Z,4.00
2022-10-18T12:05:53.304Z,4.05
2022-10-18T12:08:39.228Z,4.65
2022-10-18T12:11:18.259Z,3.78
2022-10-18T12:13:50.851Z,4.05
2022-10-18T12:16:49.401Z,3.03
2022-10-18T12:19:25.163Z,3.40
2022-10-18T12:21:55.152Z,3.88
2022-10-18T12:24:24.973Z,3.13
2022-10-18T12:26:54.173Z,3.03
2022-10-18T12:29:32.108Z,3.72
2022-10-18T12:33:02.064Z,3.83
2022-10-18T12:35:29.018Z,3.38
2022-10-18T12:38:18.928Z,3.80
2022-10-18T12:40:54.798Z,4.22
2022-10-18T12:43:38.498Z,3.70
2022-10-18T12:46:13.743Z,3.92
2022-10-18T12:48:55.949Z,3.42
2022-10-18T12:54:10.991Z,3.13
2022-10-18T12:56:42.269Z,3.47
2022-10-18T12:59:22.256Z,2.65
2022-10-18T13:01:56.322Z,3.75
2022-10-18T13:04:29.001Z,3.45
2022-10-18T13:07:01.372Z,2.60
2022-10-18T13:09:59.096Z,3.38
2022-10-18T13:12:30.362Z,3.75
2022-10-18T13:15:12.735Z,3.00
2022-10-18T13:17:55.610Z,2.95
2022-10-18T13:20:27.358Z,3.03
2022-10-18T13:23:01.168Z,2.88
2022-10-18T13:25:56.275Z,4.07
2022-10-18T13:28:23.285Z,3.28
2022-10-18T13:31:04.408Z,2.78
2022-10-18T13:33:32.784Z,2.60
2022-10-18T13:36:05.429Z,3.53
2022-10-18T13:39:07.678Z,2.58
2022-10-18T13:41:43.847Z,2.72
2022-10-18T13:44:25.500Z,2.42
2022-10-18T13:47:29.644Z,2.25
2022-10-18T13:50:05.827Z,2.55
2022-10-18T13:52:54.253Z,2.90
2022-10-18T13:55:40.032Z,2.50
2022-10-18T13:58:06.640Z,2.65
2022-10-18T14:00:44.857Z,2.60
2022-10-18T14:03:37.972Z,2.67
2022-10-18T14:06:06.875Z,2.17
2022-10-18T14:08:52.433Z,2.05
2022-10-18T14:11:25.213Z,2.13
2022-10-18T14:14:00.015Z,2.10
2022-10-18T14:16:39.907Z,2.40
2022-10-18T14:19:22.947Z,2.38
2022-10-18T14:21:53.889Z,2.08
2022-10-18T14:24:22.627Z,2.08
2022-10-18T14:27:09.106Z,2.05
2022-10-18T14:29:39.961Z,2.33
2022-10-18T14:32:23.103Z,1.80
2022-10-18T14:34:50.081Z,2.10
2022-10-18T14:37:26.798Z,1.80
2022-10-18T14:39:56.309Z,2.13
2022-10-18T14:42:30.884Z,1.95
2022-10-18T14:44:57.349Z,2.70
2022-10-18T14:47:28.768Z,2.50
2022-10-18T14:49:59.606Z,1.88
2022-10-18T14:52:35.078Z,1.90
2022-10-18T14:55:05.554Z,1.95
2022-10-18T14:57:36.285Z,1.75
2022-10-18T15:00:05.902Z,1.80
2022-10-18T15:02:35.482Z,1.98
2022-10-18T15:05:10.566Z,2.75
2022-10-18T15:07:39.429Z,1.92
2022-10-18T15:10:06.900Z,2.58
2022-10-18T15:12:45.671Z,2.47
2022-10-18T15:15:22.988Z,2.38
2022-10-18T15:17:56.102Z,2.70
2022-10-18T15:20:32.190Z,1.92
2022-10-18T15:23:17.469Z,1.85
2022-10-18T15:25:48.220Z,2.47
2022-10-18T15:28:44.990Z,2.40
2022-10-18T15:31:21.047Z,1.80
2022-10-18T15:33:50.787Z,1.80
2022-10-18T15:36:22.954Z,1.88
2022-10-18T15:38:50.205Z,2.50
2022-10-18T15:41:36.064Z,1.70
2022-10-18T15:44:17.590Z,2.17
2022-10-18T15:46:44.105Z,2.03
2022-10-18T15:49:30.660Z,1.80
2022-10-18T15:52:11.834Z,1.85
2022-10-18T15:54:38.660Z,2.05
2022-10-18T15:57:10.809Z,2.70
2022-10-18T15:59:40.577Z,2.10
2022-10-18T16:02:13.518Z,2.45
2022-10-18T16:04:40.439Z,2.00
2022-10-18T16:07:07.008Z,2.22
2022-10-18T16:09:34.771Z,2.45
2022-10-18T16:14:50.285Z,2.08
2022-10-18T16:17:17.833Z,2.47
2022-10-18T16:19:49.555Z,3.40
2022-10-18T16:22:26.057Z,2.45
2022-10-18T16:24:55.547Z,1.95
2022-10-18T16:27:23.815Z,1.60
2022-10-18T16:29:51.021Z,1.98
2022-10-18T16:32:23.043Z,2.28
2022-10-18T16:34:49.993Z,1.80
2022-10-18T16:37:16.808Z,2.08
2022-10-18T16:39:43.571Z,2.70
2022-10-18T16:42:22.516Z,2.40
2022-10-18T16:44:55.892Z,1.67
2022-10-18T16:49:52.313Z,2.13
2022-10-18T16:52:22.188Z,2.13
2022-10-18T16:54:51.443Z,2.05
2022-10-18T16:57:18.725Z,2.47
2022-10-18T16:59:51.058Z,2.60
2022-10-18T17:02:18.020Z,3.30
2022-10-18T17:04:44.651Z,3.28
2022-10-18T17:07:18.411Z,2.78
2022-10-18T17:09:45.358Z,2.85
2022-10-18T17:12:12.628Z,2.75
2022-10-18T17:14:39.670Z,2.60
2022-10-18T17:17:10.438Z,3.42
2022-10-18T17:19:37.891Z,2.70
2022-10-18T17:22:08.069Z,2.95
2022-10-18T17:24:34.708Z,3.10
2022-10-18T17:27:01.719Z,2.75
2022-10-18T17:29:28.669Z,3.30
2022-10-18T17:31:55.458Z,2.88
2022-10-18T17:34:25.876Z,3.28
2022-10-18T17:37:02.805Z,4.00
2022-10-18T17:39:36.509Z,7.57
2022-10-18T17:42:12.564Z,3.65
2022-10-18T17:44:48.436Z,3.60
2022-10-18T17:47:20.994Z,4.50
2022-10-18T17:49:54.236Z,3.63
2022-10-18T17:52:38.112Z,3.33
2022-10-18T17:55:22.002Z,3.25
2022-10-18T17:57:52.745Z,3.40
2022-10-18T18:00:30.986Z,2.75
2022-10-18T18:03:01.678Z,3.53
2022-10-18T18:05:36.177Z,3.50
2022-10-18T18:11:17.215Z,3.40
2022-10-18T18:16:37.529Z,4.30
2022-10-18T18:19:11.720Z,3.92
2022-10-18T18:22:00.575Z,2.92
2022-10-18T18:24:31.143Z,3.45
2022-10-18T18:27:04.130Z,3.30
2022-10-18T18:29:42.426Z,3.35
2022-10-18T18:32:26.962Z,2.90
2022-10-18T18:35:04.687Z,2.65
2022-10-18T18:37:43.940Z,3.03
2022-10-18T18:40:25.475Z,3.10
2022-10-18T18:43:07.055Z,3.33
2022-10-18T18:45:53.289Z,3.50
2022-10-18T18:48:31.444Z,3.20
2022-10-18T18:50:58.489Z,3.60
2022-10-18T18:53:28.653Z,3.92
2022-10-18T18:56:04.193Z,3.88
2022-10-18T18:58:31.430Z,3.28
2022-10-18T19:01:04.732Z,3.53
2022-10-18T19:03:31.840Z,3.50
2022-10-18T19:06:09.473Z,3.60
2022-10-18T19:08:40.837Z,3.33
2022-10-18T19:11:17.706Z,3.40
2022-10-18T19:13:57.230Z,4.05
2022-10-18T19:16:47.057Z,4.57
2022-10-18T19:21:58.590Z,4.28
2022-10-18T19:24:29.766Z,4.78
2022-10-18T19:27:02.860Z,5.65
2022-10-18T19:29:33.913Z,4.45
2022-10-18T19:32:16.631Z,4.72
2022-10-18T19:34:59.209Z,4.10
2022-10-18T19:37:26.326Z,5.40
2022-10-18T19:40:00.282Z,5.07
2022-10-18T19:42:33.241Z,5.75
2022-10-18T19:45:04.105Z,5.63
2022-10-18T19:47:31.549Z,5.70
2022-10-18T19:50:01.924Z,5.75
2022-10-18T19:52:30.439Z,5.80
2022-10-18T19:57:49.242Z,5.05
2022-10-18T20:00:27.667Z,4.90
2022-10-18T20:03:03.430Z,5.35
2022-10-18T20:05:42.747Z,5.38
2022-10-18T20:08:29.124Z,5.97
2022-10-18T20:11:11.619Z,5.13
2022-10-18T20:13:44.593Z,7.78
2022-10-18T20:19:16.423Z,6.57
2022-10-18T20:21:51.658Z,6.22
2022-10-18T20:24:29.522Z,5.45
2022-10-18T20:29:43.120Z,5.28
2022-10-18T20:32:13.161Z,4.75
2022-10-18T20:34:45.677Z,4.70
2022-10-18T20:37:12.402Z,4.85
2022-10-18T20:39:40.856Z,4.15
2022-10-18T20:42:07.652Z,4.32
2022-10-18T20:44:35.035Z,3.95
2022-10-18T20:47:20.037Z,3.80
2022-10-18T20:49:50.123Z,4.05
2022-10-18T20:52:28.570Z,4.35
2022-10-18T20:54:58.053Z,3.33
2022-10-18T20:57:29.160Z,3.90
2022-10-18T20:59:57.946Z,3.27
2022-10-18T21:02:26.769Z,4.95
2022-10-18T21:04:53.815Z,3.20
2022-10-18T21:07:21.165Z,4.65
2022-10-18T21:09:47.738Z,4.05
2022-10-18T21:12:20.957Z,3.85
2022-10-18T21:14:59.758Z,4.57
2022-10-18T21:17:29.612Z,3.45
2022-10-18T21:20:10.604Z,3.72
2022-10-18T21:23:22.153Z,3.28
2022-10-18T21:25:57.525Z,3.88
2022-10-18T21:28:32.930Z,3.50
2022-10-18T21:31:15.290Z,3.92
2022-10-18T21:33:48.211Z,4.53
2022-10-18T21:36:18.443Z,4.00
2022-10-18T21:38:58.410Z,4.05
2022-10-18T21:41:36.138Z,4.22
2022-10-18T21:44:15.486Z,4.00
2022-10-18T21:46:51.997Z,3.42
2022-10-18T21:49:31.873Z,4.63
2022-10-18T21:52:18.320Z,4.28
2022-10-18T21:54:50.461Z,3.83
2022-10-18T21:57:25.706Z,3.85
2022-10-18T22:00:05.301Z,3.97
2022-10-18T22:02:44.104Z,3.47
2022-10-18T22:05:15.273Z,4.20
2022-10-18T22:07:45.804Z,3.90
2022-10-18T22:10:19.195Z,3.78
2022-10-18T22:12:53.478Z,4.10
2022-10-18T22:15:31.983Z,4.20
2022-10-18T22:18:04.743Z,6.43
2022-10-18T22:20:53.313Z,4.87
2022-10-18T22:23:30.166Z,3.78
2022-10-18T22:26:09.526Z,4.80
2022-10-18T22:28:41.274Z,4.88
2022-10-18T22:31:22.555Z,4.47
2022-10-18T22:34:03.896Z,4.72
2022-10-18T22:36:40.973Z,4.88
2022-10-18T22:39:23.958Z,5.43
2022-10-18T22:41:58.348Z,5.32
2022-10-18T22:44:26.170Z,5.45
2022-10-18T22:47:02.332Z,5.63
2022-10-18T22:49:37.070Z,5.35
2022-10-18T22:52:11.327Z,5.68
2022-10-18T22:54:51.778Z,5.38
2022-10-18T22:57:27.468Z,4.65
2022-10-18T23:00:00.219Z,4.82
2022-10-18T23:02:32.346Z,5.32
2022-10-18T23:05:08.082Z,5.85
2022-10-18T23:07:38.109Z,4.63
2022-10-18T23:10:05.177Z,5.10
2022-10-18T23:12:32.989Z,4.93
2022-10-18T23:15:12.366Z,6.10
2022-10-18T23:17:40.071Z,5.53
2022-10-18T23:20:10.634Z,5.50
2022-10-18T23:22:45.634Z,6.53
2022-10-18T23:25:13.579Z,5.90
2022-10-18T23:30:11.671Z,5.18
2022-10-18T23:32:41.417Z,5.15
2022-10-18T23:35:11.319Z,6.68
2022-10-18T23:37:40.756Z,6.00
2022-10-18T23:40:08.645Z,5.32
2022-10-18T23:42:35.869Z,5.85
2022-10-18T23:45:06.759Z,5.80
2022-10-18T23:47:33.849Z,6.50
2022-10-18T23:50:18.264Z,6.57
2022-10-18T23:52:48.285Z,6.90
2022-10-18T23:55:18.846Z,6.15
2022-10-18T23:57:51.793Z,5.75
